Ios, Greece
Current Conditions -  °F | °C
As of 9:20 PM on Saturday 20 Dec 2014 (Local Time) from LGSR Reporting Station
Scattered Clouds Scattered Clouds  
Wind Chill: 59°   Ceiling: Unl
Heat Index: 59°   Visibility: 6mi
Dew Point: 50°   Wind: 3mph
Humidity: 72%   Direction: NA
Pressure: 30.15"   Gusts: NA
Location:  36.73°N, 25.28°E
Report Text: LGSR 201820Z VRB03KT 9999 SCT025 15/10 Q1021
Loading
Personal Weather Stations






























Interactive Weather Map New forecast layout! Learn more

10-Day Weather Forecast

Advertisements
Track Severe Weather on mobile